sensor_id;sensor_type;location;lat;lon;timestamp;P1;durP1;ratioP1;P2;durP2;ratioP2
12593;SDS011;6362;50.208;9.182;2022-10-31T00:01:59;12.10;;;6.10;;
12593;SDS011;6362;50.208;9.182;2022-10-31T00:04:24;16.38;;;6.50;;
12593;SDS011;6362;50.208;9.182;2022-10-31T00:06:50;12.30;;;6.25;;
12593;SDS011;6362;50.208;9.182;2022-10-31T00:09:15;13.05;;;6.18;;
12593;SDS011;6362;50.208;9.182;2022-10-31T00:11:40;11.60;;;6.18;;
12593;SDS011;6362;50.208;9.182;2022-10-31T00:14:06;10.55;;;5.70;;
12593;SDS011;6362;50.208;9.182;2022-10-31T00:16:31;12.25;;;5.45;;
12593;SDS011;6362;50.208;9.182;2022-10-31T00:18:58;11.95;;;5.65;;
12593;SDS011;6362;50.208;9.182;2022-10-31T00:21:25;14.13;;;5.70;;
12593;SDS011;6362;50.208;9.182;2022-10-31T00:23:52;10.13;;;5.43;;
12593;SDS011;6362;50.208;9.182;2022-10-31T00:26:17;10.75;;;5.47;;
12593;SDS011;6362;50.208;9.182;2022-10-31T00:28:43;11.48;;;5.55;;
12593;SDS011;6362;50.208;9.182;2022-10-31T00:33:44;12.38;;;5.68;;
12593;SDS011;6362;50.208;9.182;2022-10-31T00:36:14;14.25;;;6.50;;
12593;SDS011;6362;50.208;9.182;2022-10-31T00:38:44;13.93;;;7.00;;
12593;SDS011;6362;50.208;9.182;2022-10-31T00:41:11;11.82;;;6.53;;
12593;SDS011;6362;50.208;9.182;2022-10-31T00:43:37;15.35;;;6.68;;
12593;SDS011;6362;50.208;9.182;2022-10-31T00:46:03;18.20;;;6.55;;
12593;SDS011;6362;50.208;9.182;2022-10-31T00:48:29;14.13;;;6.53;;
12593;SDS011;6362;50.208;9.182;2022-10-31T00:50:54;10.55;;;6.35;;
12593;SDS011;6362;50.208;9.182;2022-10-31T00:53:20;13.20;;;5.88;;
12593;SDS011;6362;50.208;9.182;2022-10-31T00:55:45;12.68;;;6.25;;
12593;SDS011;6362;50.208;9.182;2022-10-31T00:58:10;15.27;;;5.50;;
12593;SDS011;6362;50.208;9.182;2022-10-31T01:00:36;10.82;;;5.60;;
12593;SDS011;6362;50.208;9.182;2022-10-31T01:03:01;13.43;;;6.18;;
12593;SDS011;6362;50.208;9.182;2022-10-31T01:05:27;12.80;;;5.75;;
12593;SDS011;6362;50.208;9.182;2022-10-31T01:07:53;10.75;;;5.40;;
12593;SDS011;6362;50.208;9.182;2022-10-31T01:10:18;13.13;;;6.75;;
12593;SDS011;6362;50.208;9.182;2022-10-31T01:12:44;16.00;;;6.70;;
12593;SDS011;6362;50.208;9.182;2022-10-31T01:15:12;16.30;;;6.68;;
12593;SDS011;6362;50.208;9.182;2022-10-31T01:17:39;13.05;;;6.90;;
12593;SDS011;6362;50.208;9.182;2022-10-31T01:20:05;12.88;;;6.18;;
12593;SDS011;6362;50.208;9.182;2022-10-31T01:22:31;14.18;;;7.55;;
12593;SDS011;6362;50.208;9.182;2022-10-31T01:24:58;13.88;;;5.80;;
12593;SDS011;6362;50.208;9.182;2022-10-31T01:27:23;12.38;;;4.85;;
12593;SDS011;6362;50.208;9.182;2022-10-31T01:29:48;12.95;;;5.97;;
12593;SDS011;6362;50.208;9.182;2022-10-31T01:32:14;13.23;;;6.15;;
12593;SDS011;6362;50.208;9.182;2022-10-31T01:34:39;17.08;;;6.32;;
12593;SDS011;6362;50.208;9.182;2022-10-31T01:37:04;15.90;;;6.50;;
12593;SDS011;6362;50.208;9.182;2022-10-31T01:39:30;14.30;;;6.63;;
12593;SDS011;6362;50.208;9.182;2022-10-31T01:41:55;13.27;;;6.10;;
12593;SDS011;6362;50.208;9.182;2022-10-31T01:49:18;11.15;;;5.75;;
12593;SDS011;6362;50.208;9.182;2022-10-31T01:51:49;10.70;;;5.72;;
12593;SDS011;6362;50.208;9.182;2022-10-31T01:54:20;12.10;;;5.90;;
12593;SDS011;6362;50.208;9.182;2022-10-31T01:56:48;9.65;;;5.50;;
12593;SDS011;6362;50.208;9.182;2022-10-31T01:59:18;11.10;;;5.22;;
12593;SDS011;6362;50.208;9.182;2022-10-31T02:01:46;10.18;;;5.55;;
12593;SDS011;6362;50.208;9.182;2022-10-31T02:04:12;12.02;;;5.68;;
12593;SDS011;6362;50.208;9.182;2022-10-31T02:06:43;13.20;;;5.90;;
12593;SDS011;6362;50.208;9.182;2022-10-31T02:09:13;11.77;;;5.82;;
12593;SDS011;6362;50.208;9.182;2022-10-31T02:11:39;11.90;;;5.90;;
12593;SDS011;6362;50.208;9.182;2022-10-31T02:14:06;10.00;;;5.65;;
12593;SDS011;6362;50.208;9.182;2022-10-31T02:16:31;10.05;;;6.25;;
12593;SDS011;6362;50.208;9.182;2022-10-31T02:18:57;12.20;;;6.45;;
12593;SDS011;6362;50.208;9.182;2022-10-31T02:22:05;10.32;;;5.15;;
12593;SDS011;6362;50.208;9.182;2022-10-31T02:38:02;13.90;;;5.75;;
12593;SDS011;6362;50.208;9.182;2022-10-31T02:40:33;12.82;;;5.68;;
12593;SDS011;6362;50.208;9.182;2022-10-31T02:43:21;8.65;;;5.00;;
12593;SDS011;6362;50.208;9.182;2022-10-31T02:48:48;10.85;;;5.10;;
12593;SDS011;6362;50.208;9.182;2022-10-31T02:51:18;15.00;;;6.03;;
12593;SDS011;6362;50.208;9.182;2022-10-31T02:53:44;12.40;;;5.47;;
12593;SDS011;6362;50.208;9.182;2022-10-31T02:56:17;13.88;;;6.03;;
12593;SDS011;6362;50.208;9.182;2022-10-31T03:01:20;14.07;;;7.13;;
12593;SDS011;6362;50.208;9.182;2022-10-31T03:06:41;14.63;;;6.50;;
12593;SDS011;6362;50.208;9.182;2022-10-31T03:11:52;11.80;;;5.97;;
12593;SDS011;6362;50.208;9.182;2022-10-31T03:14:33;16.23;;;6.68;;
12593;SDS011;6362;50.208;9.182;2022-10-31T03:17:21;17.05;;;6.05;;
12593;SDS011;6362;50.208;9.182;2022-10-31T03:19:55;9.00;;;5.55;;
12593;SDS011;6362;50.208;9.182;2022-10-31T03:22:26;11.57;;;5.72;;
12593;SDS011;6362;50.208;9.182;2022-10-31T03:24:54;12.95;;;6.80;;
12593;SDS011;6362;50.208;9.182;2022-10-31T03:27:22;10.18;;;5.93;;
12593;SDS011;6362;50.208;9.182;2022-10-31T03:29:50;10.77;;;5.60;;
12593;SDS011;6362;50.208;9.182;2022-10-31T03:32:20;12.88;;;5.95;;
12593;SDS011;6362;50.208;9.182;2022-10-31T03:34:49;12.02;;;6.70;;
12593;SDS011;6362;50.208;9.182;2022-10-31T03:37:19;13.60;;;6.28;;
12593;SDS011;6362;50.208;9.182;2022-10-31T03:39:46;9.70;;;5.72;;
12593;SDS011;6362;50.208;9.182;2022-10-31T03:42:15;14.85;;;7.43;;
12593;SDS011;6362;50.208;9.182;2022-10-31T03:44:49;11.18;;;6.57;;
12593;SDS011;6362;50.208;9.182;2022-10-31T03:47:22;13.63;;;6.68;;
12593;SDS011;6362;50.208;9.182;2022-10-31T03:49:48;10.88;;;6.05;;
12593;SDS011;6362;50.208;9.182;2022-10-31T03:54:58;13.70;;;6.40;;
12593;SDS011;6362;50.208;9.182;2022-10-31T04:00:14;12.40;;;6.38;;
12593;SDS011;6362;50.208;9.182;2022-10-31T04:02:42;10.82;;;5.95;;
12593;SDS011;6362;50.208;9.182;2022-10-31T04:05:28;9.98;;;5.50;;
12593;SDS011;6362;50.208;9.182;2022-10-31T04:07:55;12.43;;;6.65;;
12593;SDS011;6362;50.208;9.182;2022-10-31T04:10:23;10.05;;;6.07;;
12593;SDS011;6362;50.208;9.182;2022-10-31T04:12:53;12.15;;;5.95;;
12593;SDS011;6362;50.208;9.182;2022-10-31T04:15:27;15.95;;;6.20;;
12593;SDS011;6362;50.208;9.182;2022-10-31T04:17:55;11.50;;;5.90;;
12593;SDS011;6362;50.208;9.182;2022-10-31T04:20:34;10.30;;;5.40;;
12593;SDS011;6362;50.208;9.182;2022-10-31T04:23:01;7.78;;;4.78;;
12593;SDS011;6362;50.208;9.182;2022-10-31T04:25:28;8.68;;;4.75;;
12593;SDS011;6362;50.208;9.182;2022-10-31T04:27:53;10.32;;;5.15;;
12593;SDS011;6362;50.208;9.182;2022-10-31T04:30:19;16.05;;;6.43;;
12593;SDS011;6362;50.208;9.182;2022-10-31T04:32:44;12.68;;;6.22;;
12593;SDS011;6362;50.208;9.182;2022-10-31T04:35:10;11.80;;;5.85;;
12593;SDS011;6362;50.208;9.182;2022-10-31T04:37:35;9.52;;;5.50;;
12593;SDS011;6362;50.208;9.182;2022-10-31T04:40:01;9.88;;;5.55;;
12593;SDS011;6362;50.208;9.182;2022-10-31T04:42:30;12.88;;;6.45;;
12593;SDS011;6362;50.208;9.182;2022-10-31T04:44:56;11.40;;;5.75;;
12593;SDS011;6362;50.208;9.182;2022-10-31T04:47:21;11.63;;;5.95;;
12593;SDS011;6362;50.208;9.182;2022-10-31T04:49:47;12.38;;;5.22;;
12593;SDS011;6362;50.208;9.182;2022-10-31T04:52:12;11.13;;;5.85;;
12593;SDS011;6362;50.208;9.182;2022-10-31T04:54:38;11.75;;;5.78;;
12593;SDS011;6362;50.208;9.182;2022-10-31T04:57:03;11.38;;;5.72;;
12593;SDS011;6362;50.208;9.182;2022-10-31T04:59:29;13.25;;;6.47;;
12593;SDS011;6362;50.208;9.182;2022-10-31T05:01:54;13.55;;;7.00;;
12593;SDS011;6362;50.208;9.182;2022-10-31T05:04:19;14.93;;;7.55;;
12593;SDS011;6362;50.208;9.182;2022-10-31T05:06:45;16.40;;;8.45;;
12593;SDS011;6362;50.208;9.182;2022-10-31T05:09:10;13.32;;;7.47;;
12593;SDS011;6362;50.208;9.182;2022-10-31T05:11:36;18.73;;;7.47;;
12593;SDS011;6362;50.208;9.182;2022-10-31T05:14:01;18.73;;;7.65;;
12593;SDS011;6362;50.208;9.182;2022-10-31T05:16:27;15.52;;;6.78;;
12593;SDS011;6362;50.208;9.182;2022-10-31T05:18:53;13.20;;;7.38;;
12593;SDS011;6362;50.208;9.182;2022-10-31T05:21:18;13.27;;;6.30;;
12593;SDS011;6362;50.208;9.182;2022-10-31T05:23:44;13.00;;;7.15;;
12593;SDS011;6362;50.208;9.182;2022-10-31T05:26:09;15.60;;;7.90;;
12593;SDS011;6362;50.208;9.182;2022-10-31T05:28:35;14.98;;;7.13;;
12593;SDS011;6362;50.208;9.182;2022-10-31T05:31:00;17.83;;;8.07;;
12593;SDS011;6362;50.208;9.182;2022-10-31T05:33:25;15.13;;;7.32;;
12593;SDS011;6362;50.208;9.182;2022-10-31T05:35:51;17.58;;;7.45;;
12593;SDS011;6362;50.208;9.182;2022-10-31T05:38:16;14.48;;;6.90;;
12593;SDS011;6362;50.208;9.182;2022-10-31T05:40:42;12.65;;;6.68;;
12593;SDS011;6362;50.208;9.182;2022-10-31T05:43:07;10.07;;;6.05;;
12593;SDS011;6362;50.208;9.182;2022-10-31T05:45:32;12.40;;;6.20;;
12593;SDS011;6362;50.208;9.182;2022-10-31T05:47:58;14.90;;;7.25;;
12593;SDS011;6362;50.208;9.182;2022-10-31T05:50:26;15.05;;;6.65;;
12593;SDS011;6362;50.208;9.182;2022-10-31T05:52:54;15.93;;;7.47;;
12593;SDS011;6362;50.208;9.182;2022-10-31T05:55:27;12.93;;;6.90;;
12593;SDS011;6362;50.208;9.182;2022-10-31T05:57:54;12.05;;;6.60;;
12593;SDS011;6362;50.208;9.182;2022-10-31T06:00:20;14.60;;;7.10;;
12593;SDS011;6362;50.208;9.182;2022-10-31T06:02:46;14.75;;;8.18;;
12593;SDS011;6362;50.208;9.182;2022-10-31T06:05:12;17.88;;;8.07;;
12593;SDS011;6362;50.208;9.182;2022-10-31T06:07:38;13.18;;;7.22;;
12593;SDS011;6362;50.208;9.182;2022-10-31T06:10:04;14.25;;;7.55;;
12593;SDS011;6362;50.208;9.182;2022-10-31T06:12:31;15.13;;;7.22;;
12593;SDS011;6362;50.208;9.182;2022-10-31T06:14:56;12.27;;;6.85;;
12593;SDS011;6362;50.208;9.182;2022-10-31T06:17:22;13.18;;;6.82;;
12593;SDS011;6362;50.208;9.182;2022-10-31T06:19:47;12.13;;;6.35;;
12593;SDS011;6362;50.208;9.182;2022-10-31T06:22:13;14.68;;;7.15;;
12593;SDS011;6362;50.208;9.182;2022-10-31T06:24:38;14.40;;;6.68;;
12593;SDS011;6362;50.208;9.182;2022-10-31T06:27:04;14.02;;;7.32;;
12593;SDS011;6362;50.208;9.182;2022-10-31T06:29:30;13.25;;;7.70;;
12593;SDS011;6362;50.208;9.182;2022-10-31T06:31:56;17.95;;;8.27;;
12593;SDS011;6362;50.208;9.182;2022-10-31T06:34:21;15.40;;;7.68;;
12593;SDS011;6362;50.208;9.182;2022-10-31T06:36:47;13.02;;;7.25;;
12593;SDS011;6362;50.208;9.182;2022-10-31T06:39:13;15.15;;;7.22;;
12593;SDS011;6362;50.208;9.182;2022-10-31T06:41:38;13.90;;;8.18;;
12593;SDS011;6362;50.208;9.182;2022-10-31T06:44:05;17.15;;;9.02;;
12593;SDS011;6362;50.208;9.182;2022-10-31T06:46:31;21.02;;;9.40;;
12593;SDS011;6362;50.208;9.182;2022-10-31T06:48:57;16.02;;;7.90;;
12593;SDS011;6362;50.208;9.182;2022-10-31T06:51:22;14.93;;;8.55;;
12593;SDS011;6362;50.208;9.182;2022-10-31T06:53:48;14.50;;;7.75;;
12593;SDS011;6362;50.208;9.182;2022-10-31T06:56:13;12.40;;;6.93;;
12593;SDS011;6362;50.208;9.182;2022-10-31T06:58:38;10.70;;;6.40;;
12593;SDS011;6362;50.208;9.182;2022-10-31T07:01:04;14.60;;;7.40;;
12593;SDS011;6362;50.208;9.182;2022-10-31T07:03:29;19.02;;;7.28;;
12593;SDS011;6362;50.208;9.182;2022-10-31T07:05:55;18.10;;;6.30;;
12593;SDS011;6362;50.208;9.182;2022-10-31T07:08:21;22.23;;;7.30;;
12593;SDS011;6362;50.208;9.182;2022-10-31T07:10:50;12.45;;;6.72;;
12593;SDS011;6362;50.208;9.182;2022-10-31T07:13:18;16.60;;;8.55;;
12593;SDS011;6362;50.208;9.182;2022-10-31T07:15:43;11.35;;;7.10;;
12593;SDS011;6362;50.208;9.182;2022-10-31T07:18:09;13.15;;;6.90;;
12593;SDS011;6362;50.208;9.182;2022-10-31T07:20:36;12.02;;;6.68;;
12593;SDS011;6362;50.208;9.182;2022-10-31T07:23:02;10.85;;;6.57;;
12593;SDS011;6362;50.208;9.182;2022-10-31T07:25:28;13.88;;;7.22;;
12593;SDS011;6362;50.208;9.182;2022-10-31T07:27:53;13.48;;;7.80;;
12593;SDS011;6362;50.208;9.182;2022-10-31T07:30:19;12.27;;;6.88;;
12593;SDS011;6362;50.208;9.182;2022-10-31T07:32:45;11.55;;;6.43;;
12593;SDS011;6362;50.208;9.182;2022-10-31T07:35:16;13.40;;;6.38;;
12593;SDS011;6362;50.208;9.182;2022-10-31T07:37:46;11.73;;;6.43;;
12593;SDS011;6362;50.208;9.182;2022-10-31T07:40:12;13.65;;;6.85;;
12593;SDS011;6362;50.208;9.182;2022-10-31T07:42:38;16.95;;;8.00;;
12593;SDS011;6362;50.208;9.182;2022-10-31T07:45:05;14.05;;;6.78;;
12593;SDS011;6362;50.208;9.182;2022-10-31T07:47:41;14.18;;;7.95;;
12593;SDS011;6362;50.208;9.182;2022-10-31T07:50:15;19.15;;;8.48;;
12593;SDS011;6362;50.208;9.182;2022-10-31T07:52:45;13.18;;;7.80;;
12593;SDS011;6362;50.208;9.182;2022-10-31T07:55:10;16.27;;;7.97;;
12593;SDS011;6362;50.208;9.182;2022-10-31T07:57:36;14.45;;;7.85;;
12593;SDS011;6362;50.208;9.182;2022-10-31T08:00:05;15.13;;;8.13;;
12593;SDS011;6362;50.208;9.182;2022-10-31T08:02:32;15.68;;;7.85;;
12593;SDS011;6362;50.208;9.182;2022-10-31T08:04:58;18.75;;;8.75;;
12593;SDS011;6362;50.208;9.182;2022-10-31T08:07:24;13.18;;;7.30;;
12593;SDS011;6362;50.208;9.182;2022-10-31T08:09:50;18.58;;;8.32;;
12593;SDS011;6362;50.208;9.182;2022-10-31T08:12:16;12.55;;;6.78;;
12593;SDS011;6362;50.208;9.182;2022-10-31T08:14:42;15.43;;;8.02;;
12593;SDS011;6362;50.208;9.182;2022-10-31T08:17:07;16.63;;;7.00;;
12593;SDS011;6362;50.208;9.182;2022-10-31T08:19:32;14.88;;;7.43;;
12593;SDS011;6362;50.208;9.182;2022-10-31T08:21:58;13.98;;;6.90;;
12593;SDS011;6362;50.208;9.182;2022-10-31T08:24:23;18.67;;;7.35;;
12593;SDS011;6362;50.208;9.182;2022-10-31T08:26:49;10.07;;;6.40;;
12593;SDS011;6362;50.208;9.182;2022-10-31T08:29:15;15.07;;;6.68;;
12593;SDS011;6362;50.208;9.182;2022-10-31T08:31:41;14.02;;;7.15;;
12593;SDS011;6362;50.208;9.182;2022-10-31T08:34:07;12.30;;;7.53;;
12593;SDS011;6362;50.208;9.182;2022-10-31T08:36:32;12.73;;;6.22;;
12593;SDS011;6362;50.208;9.182;2022-10-31T08:38:58;13.13;;;6.47;;
12593;SDS011;6362;50.208;9.182;2022-10-31T08:41:24;17.38;;;6.97;;
12593;SDS011;6362;50.208;9.182;2022-10-31T08:43:49;14.35;;;6.70;;
12593;SDS011;6362;50.208;9.182;2022-10-31T08:46:15;16.10;;;7.85;;
12593;SDS011;6362;50.208;9.182;2022-10-31T08:48:40;14.00;;;6.78;;
12593;SDS011;6362;50.208;9.182;2022-10-31T08:51:06;12.73;;;6.60;;
12593;SDS011;6362;50.208;9.182;2022-10-31T08:53:31;16.20;;;7.03;;
12593;SDS011;6362;50.208;9.182;2022-10-31T08:55:57;13.18;;;7.18;;
12593;SDS011;6362;50.208;9.182;2022-10-31T08:58:23;11.00;;;6.68;;
12593;SDS011;6362;50.208;9.182;2022-10-31T09:00:52;14.80;;;7.07;;
12593;SDS011;6362;50.208;9.182;2022-10-31T09:03:20;13.63;;;7.20;;
12593;SDS011;6362;50.208;9.182;2022-10-31T09:05:48;17.67;;;6.90;;
12593;SDS011;6362;50.208;9.182;2022-10-31T09:08:14;15.90;;;7.70;;
12593;SDS011;6362;50.208;9.182;2022-10-31T09:10:41;11.52;;;6.57;;
12593;SDS011;6362;50.208;9.182;2022-10-31T09:13:08;13.50;;;6.13;;
12593;SDS011;6362;50.208;9.182;2022-10-31T09:15:36;13.38;;;7.43;;
12593;SDS011;6362;50.208;9.182;2022-10-31T09:18:04;11.60;;;6.45;;
12593;SDS011;6362;50.208;9.182;2022-10-31T09:20:31;13.40;;;6.70;;
12593;SDS011;6362;50.208;9.182;2022-10-31T09:22:58;15.60;;;6.60;;
12593;SDS011;6362;50.208;9.182;2022-10-31T09:25:25;14.10;;;6.57;;
12593;SDS011;6362;50.208;9.182;2022-10-31T09:27:55;15.23;;;6.78;;
12593;SDS011;6362;50.208;9.182;2022-10-31T09:30:28;16.98;;;6.20;;
12593;SDS011;6362;50.208;9.182;2022-10-31T09:32:58;12.07;;;5.60;;
12593;SDS011;6362;50.208;9.182;2022-10-31T09:35:28;13.05;;;6.25;;
12593;SDS011;6362;50.208;9.182;2022-10-31T09:37:57;21.23;;;6.50;;
12593;SDS011;6362;50.208;9.182;2022-10-31T09:51:03;13.13;;;5.22;;
12593;SDS011;6362;50.208;9.182;2022-10-31T09:53:40;12.43;;;5.63;;
12593;SDS011;6362;50.208;9.182;2022-10-31T09:56:14;13.40;;;4.60;;
12593;SDS011;6362;50.208;9.182;2022-10-31T09:58:46;11.55;;;5.20;;
12593;SDS011;6362;50.208;9.182;2022-10-31T10:04:29;13.48;;;5.30;;
12593;SDS011;6362;50.208;9.182;2022-10-31T10:06:53;11.95;;;5.45;;
12593;SDS011;6362;50.208;9.182;2022-10-31T10:09:20;11.27;;;4.72;;
12593;SDS011;6362;50.208;9.182;2022-10-31T10:33:11;11.70;;;4.35;;
12593;SDS011;6362;50.208;9.182;2022-10-31T10:40:56;10.93;;;4.63;;
12593;SDS011;6362;50.208;9.182;2022-10-31T10:43:35;10.52;;;4.20;;
12593;SDS011;6362;50.208;9.182;2022-10-31T10:52:38;13.45;;;4.22;;
12593;SDS011;6362;50.208;9.182;2022-10-31T10:59:56;11.75;;;4.40;;
12593;SDS011;6362;50.208;9.182;2022-10-31T11:02:25;12.50;;;4.30;;
12593;SDS011;6362;50.208;9.182;2022-10-31T11:04:55;12.45;;;4.40;;
12593;SDS011;6362;50.208;9.182;2022-10-31T11:07:23;11.82;;;4.00;;
12593;SDS011;6362;50.208;9.182;2022-10-31T11:09:48;10.00;;;3.90;;
12593;SDS011;6362;50.208;9.182;2022-10-31T11:12:30;10.38;;;4.70;;
12593;SDS011;6362;50.208;9.182;2022-10-31T11:14:59;10.57;;;4.78;;
12593;SDS011;6362;50.208;9.182;2022-10-31T11:17:34;7.13;;;4.18;;
12593;SDS011;6362;50.208;9.182;2022-10-31T11:20:16;11.20;;;4.15;;
12593;SDS011;6362;50.208;9.182;2022-10-31T11:23:10;14.18;;;4.25;;
12593;SDS011;6362;50.208;9.182;2022-10-31T11:26:18;11.05;;;4.10;;
12593;SDS011;6362;50.208;9.182;2022-10-31T11:28:56;13.05;;;4.88;;
12593;SDS011;6362;50.208;9.182;2022-10-31T11:31:22;7.05;;;3.97;;
12593;SDS011;6362;50.208;9.182;2022-10-31T11:33:50;16.67;;;4.28;;
12593;SDS011;6362;50.208;9.182;2022-10-31T11:36:25;12.95;;;4.75;;
12593;SDS011;6362;50.208;9.182;2022-10-31T11:38:54;13.43;;;4.68;;
12593;SDS011;6362;50.208;9.182;2022-10-31T11:41:30;12.43;;;4.63;;
12593;SDS011;6362;50.208;9.182;2022-10-31T11:43:59;13.90;;;4.65;;
12593;SDS011;6362;50.208;9.182;2022-10-31T11:46:33;12.30;;;4.63;;
12593;SDS011;6362;50.208;9.182;2022-10-31T11:49:02;10.75;;;4.50;;
12593;SDS011;6362;50.208;9.182;2022-10-31T11:51:31;13.05;;;4.68;;
12593;SDS011;6362;50.208;9.182;2022-10-31T11:53:58;12.25;;;5.50;;
12593;SDS011;6362;50.208;9.182;2022-10-31T11:56:27;11.27;;;5.53;;
12593;SDS011;6362;50.208;9.182;2022-10-31T11:59:03;10.98;;;5.10;;
12593;SDS011;6362;50.208;9.182;2022-10-31T12:01:30;10.65;;;6.05;;
12593;SDS011;6362;50.208;9.182;2022-10-31T12:06:40;16.85;;;5.72;;
12593;SDS011;6362;50.208;9.182;2022-10-31T12:09:20;12.02;;;5.97;;
12593;SDS011;6362;50.208;9.182;2022-10-31T12:16:55;12.25;;;5.22;;
12593;SDS011;6362;50.208;9.182;2022-10-31T12:48:52;11.00;;;4.03;;
12593;SDS011;6362;50.208;9.182;2022-10-31T13:02:28;11.63;;;4.43;;
12593;SDS011;6362;50.208;9.182;2022-10-31T13:05:10;9.02;;;4.43;;
12593;SDS011;6362;50.208;9.182;2022-10-31T13:07:41;12.77;;;5.45;;
12593;SDS011;6362;50.208;9.182;2022-10-31T13:13:07;14.85;;;4.60;;
12593;SDS011;6362;50.208;9.182;2022-10-31T13:15:45;11.43;;;4.47;;
12593;SDS011;6362;50.208;9.182;2022-10-31T13:18:17;18.65;;;5.05;;
12593;SDS011;6362;50.208;9.182;2022-10-31T13:20:51;12.68;;;4.75;;
12593;SDS011;6362;50.208;9.182;2022-10-31T13:23:33;13.88;;;4.55;;
12593;SDS011;6362;50.208;9.182;2022-10-31T13:26:11;11.68;;;4.28;;
12593;SDS011;6362;50.208;9.182;2022-10-31T13:28:51;13.75;;;5.72;;
12593;SDS011;6362;50.208;9.182;2022-10-31T13:31:22;14.57;;;5.07;;
12593;SDS011;6362;50.208;9.182;2022-10-31T13:33:58;9.35;;;4.15;;
12593;SDS011;6362;50.208;9.182;2022-10-31T13:36:39;11.38;;;4.32;;
12593;SDS011;6362;50.208;9.182;2022-10-31T13:44:40;16.75;;;5.15;;
12593;SDS011;6362;50.208;9.182;2022-10-31T13:50:18;11.25;;;4.90;;
12593;SDS011;6362;50.208;9.182;2022-10-31T13:52:44;11.50;;;4.40;;
12593;SDS011;6362;50.208;9.182;2022-10-31T13:58:19;11.30;;;4.13;;
12593;SDS011;6362;50.208;9.182;2022-10-31T14:01:15;12.20;;;4.00;;
12593;SDS011;6362;50.208;9.182;2022-10-31T14:03:44;11.55;;;3.53;;
12593;SDS011;6362;50.208;9.182;2022-10-31T14:06:12;6.70;;;2.90;;
12593;SDS011;6362;50.208;9.182;2022-10-31T14:08:41;8.18;;;3.13;;
12593;SDS011;6362;50.208;9.182;2022-10-31T14:11:20;9.13;;;2.95;;
12593;SDS011;6362;50.208;9.182;2022-10-31T14:13:52;11.27;;;2.90;;
12593;SDS011;6362;50.208;9.182;2022-10-31T14:18:58;9.13;;;3.53;;
12593;SDS011;6362;50.208;9.182;2022-10-31T14:21:31;7.65;;;3.60;;
12593;SDS011;6362;50.208;9.182;2022-10-31T14:24:02;6.50;;;3.15;;
12593;SDS011;6362;50.208;9.182;2022-10-31T14:26:50;13.57;;;3.55;;
12593;SDS011;6362;50.208;9.182;2022-10-31T14:31:52;9.02;;;3.00;;
12593;SDS011;6362;50.208;9.182;2022-10-31T14:40:42;10.50;;;3.03;;
12593;SDS011;6362;50.208;9.182;2022-10-31T14:51:19;10.23;;;3.60;;
12593;SDS011;6362;50.208;9.182;2022-10-31T14:53:55;9.30;;;4.00;;
12593;SDS011;6362;50.208;9.182;2022-10-31T14:56:23;13.13;;;4.60;;
12593;SDS011;6362;50.208;9.182;2022-10-31T14:58:51;8.50;;;4.03;;
12593;SDS011;6362;50.208;9.182;2022-10-31T15:03:51;8.00;;;3.67;;
12593;SDS011;6362;50.208;9.182;2022-10-31T15:06:18;10.75;;;3.85;;
12593;SDS011;6362;50.208;9.182;2022-10-31T15:08:50;10.63;;;4.03;;
12593;SDS011;6362;50.208;9.182;2022-10-31T15:11:22;12.18;;;4.55;;
12593;SDS011;6362;50.208;9.182;2022-10-31T15:13:51;12.82;;;4.57;;
12593;SDS011;6362;50.208;9.182;2022-10-31T15:16:23;9.38;;;3.58;;
12593;SDS011;6362;50.208;9.182;2022-10-31T15:18:53;14.73;;;4.80;;
12593;SDS011;6362;50.208;9.182;2022-10-31T15:21:27;11.40;;;3.80;;
12593;SDS011;6362;50.208;9.182;2022-10-31T15:23:55;15.88;;;4.03;;
12593;SDS011;6362;50.208;9.182;2022-10-31T15:26:23;12.73;;;3.55;;
12593;SDS011;6362;50.208;9.182;2022-10-31T15:29:01;13.60;;;4.55;;
12593;SDS011;6362;50.208;9.182;2022-10-31T15:31:28;11.77;;;4.30;;
12593;SDS011;6362;50.208;9.182;2022-10-31T15:33:54;10.90;;;4.20;;
12593;SDS011;6362;50.208;9.182;2022-10-31T15:36:24;10.05;;;4.00;;
12593;SDS011;6362;50.208;9.182;2022-10-31T15:38:51;9.48;;;3.60;;
12593;SDS011;6362;50.208;9.182;2022-10-31T15:43:45;9.38;;;3.70;;
12593;SDS011;6362;50.208;9.182;2022-10-31T15:46:12;13.98;;;4.00;;
12593;SDS011;6362;50.208;9.182;2022-10-31T15:48:37;8.90;;;3.80;;
12593;SDS011;6362;50.208;9.182;2022-10-31T15:51:05;7.53;;;2.90;;
12593;SDS011;6362;50.208;9.182;2022-10-31T15:56:11;14.35;;;3.95;;
12593;SDS011;6362;50.208;9.182;2022-10-31T15:58:44;11.63;;;4.00;;
12593;SDS011;6362;50.208;9.182;2022-10-31T16:01:27;9.32;;;3.30;;
12593;SDS011;6362;50.208;9.182;2022-10-31T16:03:58;9.32;;;4.03;;
12593;SDS011;6362;50.208;9.182;2022-10-31T16:06:29;12.23;;;4.28;;
12593;SDS011;6362;50.208;9.182;2022-10-31T16:08:54;9.82;;;4.05;;
12593;SDS011;6362;50.208;9.182;2022-10-31T16:16:40;10.48;;;4.10;;
12593;SDS011;6362;50.208;9.182;2022-10-31T16:19:18;11.40;;;3.95;;
12593;SDS011;6362;50.208;9.182;2022-10-31T16:21:47;9.48;;;3.85;;
12593;SDS011;6362;50.208;9.182;2022-10-31T16:26:54;15.15;;;5.03;;
12593;SDS011;6362;50.208;9.182;2022-10-31T16:31:59;17.88;;;5.32;;
12593;SDS011;6362;50.208;9.182;2022-10-31T16:34:25;11.15;;;5.40;;
12593;SDS011;6362;50.208;9.182;2022-10-31T16:36:52;13.60;;;5.50;;
12593;SDS011;6362;50.208;9.182;2022-10-31T16:39:17;16.90;;;6.10;;
12593;SDS011;6362;50.208;9.182;2022-10-31T16:41:45;11.48;;;4.93;;
12593;SDS011;6362;50.208;9.182;2022-10-31T16:44:17;12.20;;;5.82;;
12593;SDS011;6362;50.208;9.182;2022-10-31T16:46:46;14.55;;;6.85;;
12593;SDS011;6362;50.208;9.182;2022-10-31T16:49:12;12.85;;;6.15;;
12593;SDS011;6362;50.208;9.182;2022-10-31T16:51:40;14.07;;;5.90;;
12593;SDS011;6362;50.208;9.182;2022-10-31T16:54:05;13.40;;;5.28;;
12593;SDS011;6362;50.208;9.182;2022-10-31T16:56:33;15.32;;;4.95;;
12593;SDS011;6362;50.208;9.182;2022-10-31T16:59:01;12.30;;;5.00;;
12593;SDS011;6362;50.208;9.182;2022-10-31T17:01:29;12.77;;;5.13;;
12593;SDS011;6362;50.208;9.182;2022-10-31T17:03:55;14.18;;;5.30;;
12593;SDS011;6362;50.208;9.182;2022-10-31T17:06:21;12.35;;;5.28;;
12593;SDS011;6362;50.208;9.182;2022-10-31T17:08:46;10.05;;;4.93;;
12593;SDS011;6362;50.208;9.182;2022-10-31T17:11:14;11.75;;;5.38;;
12593;SDS011;6362;50.208;9.182;2022-10-31T17:13:43;13.35;;;5.30;;
12593;SDS011;6362;50.208;9.182;2022-10-31T17:16:08;18.27;;;5.55;;
12593;SDS011;6362;50.208;9.182;2022-10-31T17:18:36;17.40;;;6.38;;
12593;SDS011;6362;50.208;9.182;2022-10-31T17:21:02;12.35;;;5.22;;
12593;SDS011;6362;50.208;9.182;2022-10-31T17:23:30;11.80;;;4.97;;
12593;SDS011;6362;50.208;9.182;2022-10-31T17:25:57;12.70;;;5.35;;
12593;SDS011;6362;50.208;9.182;2022-10-31T17:28:22;14.95;;;5.65;;
12593;SDS011;6362;50.208;9.182;2022-10-31T17:30:50;15.18;;;5.68;;
12593;SDS011;6362;50.208;9.182;2022-10-31T17:33:17;14.63;;;5.95;;
12593;SDS011;6362;50.208;9.182;2022-10-31T17:35:43;14.55;;;5.47;;
12593;SDS011;6362;50.208;9.182;2022-10-31T17:38:11;10.70;;;5.20;;
12593;SDS011;6362;50.208;9.182;2022-10-31T17:40:37;13.77;;;6.10;;
12593;SDS011;6362;50.208;9.182;2022-10-31T17:43:05;16.60;;;6.05;;
12593;SDS011;6362;50.208;9.182;2022-10-31T17:45:31;15.52;;;5.95;;
12593;SDS011;6362;50.208;9.182;2022-10-31T17:47:56;18.33;;;5.65;;
12593;SDS011;6362;50.208;9.182;2022-10-31T17:50:23;13.10;;;5.57;;
12593;SDS011;6362;50.208;9.182;2022-10-31T17:52:50;17.02;;;5.63;;
12593;SDS011;6362;50.208;9.182;2022-10-31T17:55:16;13.00;;;5.43;;
12593;SDS011;6362;50.208;9.182;2022-10-31T17:57:42;11.57;;;6.13;;
12593;SDS011;6362;50.208;9.182;2022-10-31T18:00:12;15.52;;;5.50;;
12593;SDS011;6362;50.208;9.182;2022-10-31T18:02:39;17.95;;;5.85;;
12593;SDS011;6362;50.208;9.182;2022-10-31T18:05:05;17.92;;;5.63;;
12593;SDS011;6362;50.208;9.182;2022-10-31T18:07:31;13.85;;;5.63;;